createdAt,value
2019-04-14T00:00:23.540Z,3.13324
2019-04-14T00:01:23.683Z,3.13324
2019-04-14T00:02:22.872Z,3.13324
2019-04-14T00:03:23.685Z,3.153381
2019-04-14T00:04:22.834Z,3.153381
2019-04-14T00:05:23.240Z,3.163452
2019-04-14T00:06:24.392Z,3.123169
2019-04-14T00:07:23.999Z,3.092957
2019-04-14T00:08:24.071Z,3.052673
2019-04-14T00:09:23.116Z,3.01239
2019-04-14T00:10:23.156Z,2.982178
2019-04-14T00:11:23.425Z,2.941895
2019-04-14T00:12:23.330Z,2.901611
2019-04-14T00:13:23.900Z,2.871399
2019-04-14T00:14:25.003Z,2.821045
2019-04-14T00:15:32.833Z,2.800903
2019-04-14T00:16:24.876Z,2.770691
2019-04-14T00:17:24.562Z,2.730408
2019-04-14T00:18:23.636Z,2.720337
2019-04-14T00:19:23.869Z,2.700195
2019-04-14T00:20:24.685Z,2.649841
2019-04-14T00:21:23.851Z,2.619629
2019-04-14T00:22:26.554Z,2.589417
2019-04-14T00:23:23.947Z,2.589417
2019-04-14T00:24:24.892Z,2.569275
2019-04-14T00:25:24.124Z,2.569275
2019-04-14T00:26:24.763Z,2.539062
2019-04-14T00:27:25.939Z,2.50885
2019-04-14T00:28:25.288Z,2.458496
2019-04-14T00:29:24.354Z,2.438354
2019-04-14T00:30:25.153Z,2.428284
2019-04-14T00:31:26.223Z,2.408142
2019-04-14T00:32:25.546Z,2.388
2019-04-14T00:33:25.709Z,2.388
2019-04-14T00:34:31.727Z,2.367859
2019-04-14T00:35:25.558Z,2.388
2019-04-14T00:36:26.093Z,2.388
2019-04-14T00:37:25.934Z,2.398071
2019-04-14T00:38:25.971Z,2.398071
2019-04-14T00:39:25.114Z,2.408142
2019-04-14T00:40:27.049Z,2.408142
2019-04-14T00:41:36.000Z,2.428284
2019-04-14T00:42:26.132Z,2.458496
2019-04-14T00:43:25.188Z,2.498779
2019-04-14T00:44:25.488Z,2.518921
2019-04-14T00:45:36.903Z,2.539062
2019-04-14T00:46:27.536Z,2.539062
2019-04-14T00:47:26.678Z,2.569275
2019-04-14T00:48:27.562Z,2.569275
2019-04-14T00:49:26.754Z,2.569275
2019-04-14T00:50:25.526Z,2.589417
2019-04-14T00:51:26.546Z,2.609558
2019-04-14T00:52:27.603Z,2.639771
2019-04-14T00:53:25.673Z,2.639771
2019-04-14T00:54:25.991Z,2.680054
2019-04-14T00:55:27.122Z,2.690125
2019-04-14T00:56:25.963Z,2.720337
2019-04-14T00:57:27.014Z,2.720337
2019-04-14T00:58:26.141Z,2.720337
2019-04-14T00:59:26.804Z,2.720337
2019-04-14T01:00:27.583Z,2.730408
2019-04-14T01:01:28.540Z,2.730408
2019-04-14T01:02:27.515Z,2.76062
2019-04-14T01:03:26.616Z,2.770691
2019-04-14T01:04:27.277Z,2.770691
2019-04-14T01:05:28.387Z,2.790833
2019-04-14T01:06:27.767Z,2.831116
2019-04-14T01:07:26.829Z,2.831116
2019-04-14T01:08:27.047Z,2.831116
2019-04-14T01:09:28.260Z,2.851257
2019-04-14T01:10:27.831Z,2.831116
2019-04-14T01:11:27.203Z,2.831116
2019-04-14T01:12:27.763Z,2.851257
2019-04-14T01:13:28.895Z,2.851257
2019-04-14T01:14:28.395Z,2.871399
2019-04-14T01:15:27.474Z,2.871399
2019-04-14T01:16:29.700Z,2.88147
2019-04-14T01:17:28.629Z,2.931824
2019-04-14T01:18:27.698Z,2.941895
2019-04-14T01:19:28.685Z,2.931824
2019-04-14T01:20:27.776Z,2.951965
2019-04-14T01:21:28.495Z,2.941895
2019-04-14T01:22:29.159Z,2.951965
2019-04-14T01:23:28.318Z,2.941895
2019-04-14T01:24:29.196Z,2.941895
2019-04-14T01:25:28.227Z,2.982178
2019-04-14T01:26:28.869Z,2.982178
2019-04-14T01:27:29.900Z,2.982178
2019-04-14T01:28:29.397Z,2.982178
2019-04-14T01:29:29.666Z,2.972107
2019-04-14T01:30:28.517Z,2.982178
2019-04-14T01:31:29.539Z,2.972107
2019-04-14T01:32:30.476Z,2.972107
2019-04-14T01:33:29.372Z,2.982178
2019-04-14T01:34:30.220Z,3.002319
2019-04-14T01:35:29.759Z,2.982178
2019-04-14T01:36:29.814Z,3.002319
2019-04-14T01:37:29.108Z,3.002319
2019-04-14T01:38:29.692Z,3.01239
2019-04-14T01:39:30.747Z,3.01239
2019-04-14T01:40:31.320Z,3.032532
2019-04-14T01:41:30.215Z,3.01239
2019-04-14T01:42:29.210Z,3.002319
2019-04-14T01:43:29.956Z,3.002319
2019-04-14T01:44:30.686Z,3.002319
2019-04-14T01:45:31.641Z,3.01239
2019-04-14T01:46:32.344Z,3.032532
2019-04-14T01:47:29.575Z,3.032532
2019-04-14T01:48:30.026Z,3.01239
2019-04-14T01:49:31.057Z,3.01239
2019-04-14T01:50:30.717Z,3.002319
2019-04-14T01:51:30.904Z,2.982178
2019-04-14T01:52:29.877Z,2.972107
2019-04-14T01:53:31.478Z,2.982178
2019-04-14T01:54:32.124Z,3.002319
2019-04-14T01:55:30.885Z,3.01239
2019-04-14T01:56:30.136Z,3.01239
2019-04-14T01:57:30.664Z,2.982178
2019-04-14T01:58:31.719Z,2.972107
2019-04-14T01:59:30.542Z,2.972107
2019-04-14T02:00:31.397Z,2.951965
2019-04-14T02:01:30.542Z,2.941895
2019-04-14T02:02:31.643Z,2.931824
2019-04-14T02:03:30.697Z,2.901611
2019-04-14T02:04:31.244Z,2.851257
2019-04-14T02:05:32.083Z,2.831116
2019-04-14T02:06:31.885Z,2.790833
2019-04-14T02:07:31.887Z,2.76062
2019-04-14T02:08:31.055Z,2.730408
2019-04-14T02:09:31.589Z,2.690125
2019-04-14T02:10:32.625Z,2.649841
2019-04-14T02:11:31.427Z,2.589417
2019-04-14T02:12:32.335Z,2.549133
2019-04-14T02:13:33.188Z,2.50885
2019-04-14T02:14:32.385Z,2.468567
2019-04-14T02:15:31.445Z,2.458496
2019-04-14T02:16:39.320Z,2.438354
2019-04-14T02:17:32.809Z,2.428284
2019-04-14T02:18:31.899Z,2.408142
2019-04-14T02:19:32.737Z,2.398071
2019-04-14T02:20:31.952Z,2.357788
2019-04-14T02:21:32.393Z,2.337646
2019-04-14T02:22:33.445Z,2.337646
2019-04-14T02:23:32.308Z,2.327576
2019-04-14T02:24:33.057Z,2.297363
2019-04-14T02:25:33.874Z,2.25708
2019-04-14T02:26:32.944Z,2.25708
2019-04-14T02:27:33.951Z,2.216797
2019-04-14T02:28:33.275Z,2.206726
2019-04-14T02:29:32.374Z,2.206726
2019-04-14T02:30:38.645Z,2.186584
2019-04-14T02:31:59.452Z,2.176514
2019-04-14T02:33:03.141Z,2.186584
2019-04-14T02:34:15.322Z,2.176514
2019-04-14T02:35:01.569Z,2.146301
2019-04-14T02:36:05.437Z,2.13623
2019-04-14T02:37:04.291Z,2.095947
2019-04-14T02:38:01.680Z,2.075806
2019-04-14T02:40:00.250Z,2.035522
2019-04-14T02:42:06.576Z,2.00531
2019-04-14T02:42:53.833Z,1.995239
2019-04-14T02:44:03.945Z,1.954956
2019-04-14T02:44:59.645Z,1.954956
2019-04-14T02:45:56.845Z,1.924744
2019-04-14T02:47:03.182Z,1.924744
2019-04-14T02:48:02.132Z,1.894531
2019-04-14T02:48:55.141Z,1.88446
2019-04-14T02:49:55.890Z,1.88446
2019-04-14T02:51:03.999Z,1.864319
2019-04-14T02:51:55.849Z,1.824036
2019-04-14T02:53:00.287Z,1.844177
2019-04-14T02:54:58.686Z,1.783752
2019-04-14T02:57:01.015Z,1.783752
2019-04-14T02:58:00.926Z,1.743469
2019-04-14T02:58:58.140Z,1.703186
2019-04-14T02:59:58.292Z,1.672974
2019-04-14T03:01:22.875Z,1.672974
2019-04-14T03:02:13.900Z,1.662903
2019-04-14T03:02:56.000Z,1.662903
2019-04-14T03:03:55.768Z,1.662903
2019-04-14T03:05:01.552Z,1.662903
2019-04-14T03:05:57.409Z,1.662903
2019-04-14T03:07:59.550Z,1.662903
2019-04-14T03:09:18.768Z,1.662903
2019-04-14T03:09:52.048Z,1.612549
2019-04-14T03:11:00.845Z,1.63269
2019-04-14T03:12:00.239Z,1.582336
2019-04-14T03:13:05.347Z,1.582336
2019-04-14T03:14:06.013Z,1.572266
2019-04-14T03:15:00.610Z,1.562195
2019-04-14T03:15:54.951Z,1.531982
2019-04-14T03:17:13.463Z,1.531982
2019-04-14T03:18:15.718Z,1.521912
2019-04-14T03:18:57.457Z,1.521912
2019-04-14T03:20:13.422Z,1.50177
2019-04-14T03:21:03.259Z,1.481628
2019-04-14T03:22:02.607Z,1.491699
2019-04-14T03:22:55.122Z,1.50177
2019-04-14T03:24:02.973Z,1.491699
2019-04-14T03:24:46.422Z,1.491699
2019-04-14T03:25:56.741Z,1.491699
2019-04-14T03:27:03.951Z,1.481628
2019-04-14T03:27:58.207Z,1.481628
2019-04-14T03:28:56.068Z,1.461487
2019-04-14T03:30:16.057Z,1.451416
2019-04-14T03:32:10.139Z,1.431274
2019-04-14T03:33:30.996Z,1.431274
2019-04-14T03:35:19.328Z,1.431274
2019-04-14T03:37:58.847Z,1.390991
2019-04-14T03:39:56.921Z,1.401062
2019-04-14T03:41:08.330Z,1.421204
2019-04-14T03:42:00.172Z,1.421204
2019-04-14T03:43:09.685Z,1.451416
2019-04-14T03:43:54.112Z,1.451416
2019-04-14T03:45:03.377Z,1.451416
2019-04-14T03:48:33.553Z,1.461487
2019-04-14T03:49:13.683Z,1.461487
2019-04-14T03:50:13.318Z,1.431274
2019-04-14T03:51:00.158Z,1.431274
2019-04-14T03:51:57.058Z,1.401062
2019-04-14T03:53:05.507Z,1.401062
2019-04-14T03:53:57.404Z,1.390991
2019-04-14T03:54:49.915Z,1.360779
2019-04-14T03:55:42.967Z,1.360779
2019-04-14T03:56:35.935Z,1.360779
2019-04-14T03:57:34.992Z,1.340637
2019-04-14T03:58:35.707Z,1.310425
2019-04-14T03:59:36.739Z,1.320496
2019-04-14T04:00:36.168Z,1.310425
2019-04-14T04:01:35.239Z,1.300354
2019-04-14T04:02:35.905Z,1.310425
2019-04-14T04:03:35.351Z,1.300354
2019-04-14T04:04:36.424Z,1.280212
2019-04-14T04:05:36.662Z,1.300354
2019-04-14T04:06:35.716Z,1.280212
2019-04-14T04:07:36.456Z,1.280212
2019-04-14T04:08:35.725Z,1.270142
2019-04-14T04:09:36.470Z,1.270142
2019-04-14T04:10:35.830Z,1.25
2019-04-14T04:11:36.621Z,1.219788
2019-04-14T04:12:37.889Z,1.219788
2019-04-14T04:13:36.592Z,1.219788
2019-04-14T04:14:36.024Z,1.209717
2019-04-14T04:15:36.458Z,1.199646
2019-04-14T04:16:37.593Z,1.209717
2019-04-14T04:17:38.620Z,1.209717
2019-04-14T04:18:47.193Z,1.199646
2019-04-14T04:19:38.287Z,1.179504
2019-04-14T04:20:37.062Z,1.199646
2019-04-14T04:21:37.912Z,1.199646
2019-04-14T04:22:36.926Z,1.199646
2019-04-14T04:23:36.723Z,1.179504
2019-04-14T04:24:37.042Z,1.199646
2019-04-14T04:25:37.820Z,1.179504
2019-04-14T04:26:36.931Z,1.179504
2019-04-14T04:27:37.524Z,1.159363
2019-04-14T04:28:37.072Z,1.179504
2019-04-14T04:29:37.608Z,1.139221
2019-04-14T04:30:38.131Z,1.139221
2019-04-14T04:31:37.483Z,1.139221
2019-04-14T04:32:38.281Z,1.12915
2019-04-14T04:33:37.374Z,1.11908
2019-04-14T04:34:38.006Z,1.11908
2019-04-14T04:35:39.287Z,1.11908
2019-04-14T04:36:38.535Z,1.12915
2019-04-14T04:37:39.006Z,1.11908
2019-04-14T04:38:37.780Z,1.11908
2019-04-14T04:39:38.443Z,1.11908
2019-04-14T04:40:37.803Z,1.11908
2019-04-14T04:41:38.631Z,1.11908
2019-04-14T04:42:39.474Z,1.098938
2019-04-14T04:43:38.887Z,1.088867
2019-04-14T04:44:37.880Z,1.088867
2019-04-14T04:45:38.675Z,1.068726
2019-04-14T04:46:39.463Z,1.068726
2019-04-14T04:47:39.093Z,1.068726
2019-04-14T04:48:39.060Z,1.068726
2019-04-14T04:49:40.324Z,1.058655
2019-04-14T04:50:38.833Z,1.038513
2019-04-14T04:51:39.997Z,1.028442
2019-04-14T04:52:40.678Z,1.028442
2019-04-14T04:53:38.460Z,1.028442
2019-04-14T04:54:38.526Z,1.028442
2019-04-14T04:55:39.546Z,1.018372
2019-04-14T04:56:38.475Z,1.018372
2019-04-14T04:57:39.483Z,1.018372
2019-04-14T04:58:39.130Z,0.99823
2019-04-14T04:59:38.817Z,1.018372
2019-04-14T05:00:39.461Z,0.99823
2019-04-14T05:01:40.748Z,1.018372
2019-04-14T05:02:39.552Z,1.018372
2019-04-14T05:03:40.677Z,1.018372
2019-04-14T05:04:39.943Z,1.028442
2019-04-14T05:05:38.952Z,1.028442
2019-04-14T05:06:39.350Z,1.018372
2019-04-14T05:07:40.534Z,1.028442
2019-04-14T05:08:39.142Z,1.028442
2019-04-14T05:09:39.164Z,1.018372
2019-04-14T05:10:39.261Z,1.018372
2019-04-14T05:11:39.046Z,1.038513
2019-04-14T05:12:41.297Z,1.018372
2019-04-14T05:13:40.231Z,1.018372
2019-04-14T05:14:39.294Z,1.018372
2019-04-14T05:15:40.247Z,1.028442
2019-04-14T05:16:41.760Z,1.038513
2019-04-14T05:17:40.833Z,1.058655
2019-04-14T05:18:39.886Z,1.068726
2019-04-14T05:19:40.737Z,1.088867
2019-04-14T05:20:39.818Z,1.088867
2019-04-14T05:21:40.954Z,1.098938
2019-04-14T05:22:39.912Z,1.12915
2019-04-14T05:23:40.948Z,1.12915
2019-04-14T05:24:40.101Z,1.139221
2019-04-14T05:25:40.785Z,1.179504
2019-04-14T05:26:41.727Z,1.199646
2019-04-14T05:27:41.368Z,1.199646
2019-04-14T05:28:41.569Z,1.209717
2019-04-14T05:29:40.758Z,1.239929
2019-04-14T05:30:41.434Z,1.239929
2019-04-14T05:31:40.452Z,1.270142
2019-04-14T05:32:41.243Z,1.25
2019-04-14T05:33:40.539Z,1.270142
2019-04-14T05:34:41.185Z,1.270142
2019-04-14T05:35:42.306Z,1.280212
2019-04-14T05:36:41.693Z,1.320496
2019-04-14T05:37:40.719Z,1.340637
2019-04-14T05:38:40.881Z,1.340637
2019-04-14T05:39:41.793Z,1.38092
2019-04-14T05:40:40.873Z,1.38092
2019-04-14T05:41:47.843Z,1.401062
2019-04-14T05:42:42.721Z,1.421204
2019-04-14T05:43:48.645Z,1.421204
2019-04-14T05:44:42.598Z,1.401062
2019-04-14T05:45:42.176Z,1.451416
2019-04-14T05:46:42.427Z,1.451416
2019-04-14T05:47:41.494Z,1.461487
2019-04-14T05:48:42.424Z,1.491699
2019-04-14T05:49:46.740Z,1.50177
2019-04-14T05:50:42.532Z,1.521912
2019-04-14T05:51:41.630Z,1.531982
2019-04-14T05:52:42.343Z,1.572266
2019-04-14T05:53:41.670Z,1.582336
2019-04-14T05:54:42.533Z,1.582336
2019-04-14T05:55:41.808Z,1.612549
2019-04-14T05:56:42.547Z,1.642761
2019-04-14T05:57:41.972Z,1.642761
2019-04-14T05:58:42.497Z,1.672974
2019-04-14T05:59:44.012Z,1.683044
2019-04-14T06:00:42.245Z,1.683044
2019-04-14T06:01:44.274Z,1.713257
2019-04-14T06:02:44.115Z,1.75354
2019-04-14T06:03:43.217Z,1.763611
2019-04-14T06:04:43.962Z,1.793823
2019-04-14T06:05:44.925Z,1.813965
2019-04-14T06:06:42.631Z,1.824036
2019-04-14T06:07:42.679Z,1.844177
2019-04-14T06:08:42.697Z,1.854248
2019-04-14T06:09:42.743Z,1.864319
2019-04-14T06:10:42.957Z,1.864319
2019-04-14T06:11:42.921Z,1.894531
2019-04-14T06:12:42.997Z,1.924744
2019-04-14T06:13:42.995Z,1.954956
2019-04-14T06:14:43.000Z,1.954956
2019-04-14T06:15:43.051Z,1.995239
2019-04-14T06:16:43.068Z,2.00531
2019-04-14T06:17:44.236Z,2.025452
2019-04-14T06:18:43.257Z,2.045593
2019-04-14T06:19:43.276Z,2.065735
2019-04-14T06:20:43.312Z,2.095947
2019-04-14T06:21:43.366Z,2.116089
2019-04-14T06:22:43.359Z,2.146301
2019-04-14T06:23:43.359Z,2.146301
2019-04-14T06:24:43.392Z,2.176514
2019-04-14T06:25:43.490Z,2.206726
2019-04-14T06:26:43.526Z,2.226868
2019-04-14T06:27:43.519Z,2.226868
2019-04-14T06:28:43.525Z,2.247009
2019-04-14T06:29:43.543Z,2.25708
2019-04-14T06:30:43.541Z,2.297363
2019-04-14T06:31:43.573Z,2.317505
2019-04-14T06:32:43.637Z,2.337646
2019-04-14T06:33:43.649Z,2.357788
2019-04-14T06:34:43.649Z,2.388
2019-04-14T06:35:43.655Z,2.408142
2019-04-14T06:36:43.709Z,2.408142
2019-04-14T06:37:43.728Z,2.428284
2019-04-14T06:38:43.762Z,2.438354
2019-04-14T06:39:43.800Z,2.468567
2019-04-14T06:40:43.811Z,2.518921
2019-04-14T06:41:43.847Z,2.539062
2019-04-14T06:42:43.868Z,2.609558
2019-04-14T06:43:48.848Z,2.609558
2019-04-14T06:44:44.064Z,2.619629
2019-04-14T06:45:44.029Z,2.639771
2019-04-14T06:46:44.051Z,2.680054
2019-04-14T06:47:44.066Z,2.730408
2019-04-14T06:48:44.069Z,2.750549
2019-04-14T06:49:49.015Z,2.76062
2019-04-14T06:50:46.286Z,2.790833
2019-04-14T06:51:44.100Z,2.800903
2019-04-14T06:52:44.085Z,2.800903
2019-04-14T06:53:44.102Z,2.851257
2019-04-14T06:54:44.111Z,2.871399
2019-04-14T06:55:44.135Z,2.931824
2019-04-14T06:56:44.172Z,2.982178
2019-04-14T06:57:44.196Z,3.01239
2019-04-14T06:58:44.203Z,3.062744
2019-04-14T06:59:44.217Z,3.113098
2019-04-14T07:00:44.223Z,3.123169
2019-04-14T07:01:44.250Z,3.13324
2019-04-14T07:02:45.573Z,3.13324
2019-04-14T07:03:44.292Z,3.13324
2019-04-14T07:04:44.302Z,3.153381
2019-04-14T07:05:44.324Z,3.193665
2019-04-14T07:06:44.371Z,3.244019
2019-04-14T07:07:56.130Z,3.26416
2019-04-14T07:08:44.531Z,3.294373
2019-04-14T07:09:44.527Z,3.304443
2019-04-14T07:10:44.603Z,3.344727
2019-04-14T07:11:44.594Z,3.374939
2019-04-14T07:12:44.680Z,3.425293
2019-04-14T07:13:47.786Z,3.445435
2019-04-14T07:14:44.684Z,3.425293
2019-04-14T07:15:44.695Z,3.475647
2019-04-14T07:16:44.748Z,3.485718
2019-04-14T07:17:44.772Z,3.485718
2019-04-14T07:18:44.800Z,3.526001
2019-04-14T07:19:44.797Z,3.526001
2019-04-14T07:20:45.922Z,3.576355
2019-04-14T07:21:45.234Z,3.63678
2019-04-14T07:22:44.959Z,3.656921
2019-04-14T07:23:47.213Z,3.697205
2019-04-14T07:24:45.001Z,3.7677
2019-04-14T07:25:45.000Z,3.858337
2019-04-14T07:26:45.023Z,3.938904
2019-04-14T07:27:45.061Z,3.999329
2019-04-14T07:28:56.098Z,4.029541
2019-04-14T07:29:45.236Z,4.039612
2019-04-14T07:30:45.258Z,4.120178
2019-04-14T07:31:45.272Z,4.180603
2019-04-14T07:32:45.298Z,4.241028
2019-04-14T07:33:45.331Z,4.241028
2019-04-14T07:34:45.360Z,4.27124
2019-04-14T07:35:45.369Z,4.301453
2019-04-14T07:36:45.440Z,4.341736
2019-04-14T07:37:45.525Z,4.382019
2019-04-14T07:38:45.566Z,4.382019
2019-04-14T07:39:45.566Z,4.432373
2019-04-14T07:40:45.585Z,4.492798
2019-04-14T07:41:45.730Z,4.573364
2019-04-14T07:42:45.764Z,4.613647
2019-04-14T07:43:45.778Z,4.684143
2019-04-14T07:44:45.833Z,4.754639
2019-04-14T07:45:45.865Z,4.794922
2019-04-14T07:46:45.876Z,4.835205
2019-04-14T07:47:45.907Z,4.935913
2019-04-14T07:48:45.899Z,4.945984
2019-04-14T07:49:45.928Z,4.996338
2019-04-14T07:50:45.961Z,4.996338
2019-04-14T07:51:46.009Z,5.036621
2019-04-14T07:52:46.052Z,5.046692
2019-04-14T07:53:46.070Z,5.097046
2019-04-14T07:54:46.124Z,5.097046
2019-04-14T07:55:46.179Z,5.117188
2019-04-14T07:56:46.322Z,5.127258
2019-04-14T07:57:46.328Z,5.177612
2019-04-14T07:58:46.376Z,5.258179
2019-04-14T07:59:46.440Z,5.308533
2019-04-14T08:00:46.460Z,5.308533
2019-04-14T08:01:46.493Z,5.288391
2019-04-14T08:02:46.523Z,5.248108
2019-04-14T08:03:46.554Z,5.27832
2019-04-14T08:04:46.590Z,5.248108
2019-04-14T08:05:46.599Z,5.338745
2019-04-14T08:06:46.642Z,5.379028
2019-04-14T08:07:46.698Z,5.439453
2019-04-14T08:08:46.740Z,5.52002
2019-04-14T08:09:46.804Z,5.560303
2019-04-14T08:10:46.823Z,5.52002
2019-04-14T08:11:46.836Z,5.489807
2019-04-14T08:12:46.852Z,5.429382
2019-04-14T08:13:46.913Z,5.459595
2019-04-14T08:14:46.969Z,5.580444
2019-04-14T08:15:46.994Z,6.094055
2019-04-14T08:16:47.007Z,7.04071
2019-04-14T08:17:47.032Z,7.957153
2019-04-14T08:18:47.143Z,8.692322
2019-04-14T08:19:47.226Z,9.336853
2019-04-14T08:20:47.259Z,9.941101
2019-04-14T08:21:47.438Z,10.273438
2019-04-14T08:22:47.388Z,10.666199
2019-04-14T08:23:47.535Z,11.048889
2019-04-14T08:24:47.666Z,11.260376
2019-04-14T08:25:47.655Z,11.592712
2019-04-14T08:26:47.674Z,12.297668
2019-04-14T08:27:47.823Z,13.113403
2019-04-14T08:28:47.865Z,13.647156
2019-04-14T08:29:47.853Z,14.009705
2019-04-14T08:30:48.009Z,13.969421
2019-04-14T08:31:48.004Z,14.301758
2019-04-14T08:32:48.139Z,14.58374
2019-04-14T08:33:48.129Z,15.107422
2019-04-14T08:34:48.317Z,15.429688
2019-04-14T08:35:48.475Z,15.762024
2019-04-14T08:36:48.487Z,15.631104
2019-04-14T08:37:48.482Z,15.409546
2019-04-14T08:38:48.499Z,15.147705
2019-04-14T08:39:48.586Z,14.885864
2019-04-14T08:40:48.635Z,14.493103
2019-04-14T08:41:48.615Z,14.33197
2019-04-14T08:42:48.747Z,14.251404
2019-04-14T08:43:48.896Z,14.120483
2019-04-14T08:44:48.940Z,14.110413
2019-04-14T08:45:49.013Z,14.251404
2019-04-14T08:46:49.185Z,14.362183
2019-04-14T08:47:49.191Z,14.372253
2019-04-14T08:48:49.206Z,14.402466
2019-04-14T08:49:49.329Z,14.442749
2019-04-14T08:50:49.342Z,14.775085
2019-04-14T08:51:49.337Z,14.533386
2019-04-14T08:52:49.345Z,14.221191
2019-04-14T08:53:49.375Z,14.33197
2019-04-14T08:54:49.418Z,14.221191
2019-04-14T08:55:49.452Z,14.039917
2019-04-14T08:56:49.560Z,13.848572
2019-04-14T08:57:49.545Z,13.123474
2019-04-14T08:58:50.651Z,12.549438
2019-04-14T08:59:49.863Z,12.096252
2019-04-14T09:00:49.818Z,11.925049
2019-04-14T09:01:49.850Z,11.925049
2019-04-14T09:02:49.892Z,12.015686
2019-04-14T09:03:49.867Z,12.045898
2019-04-14T09:04:49.899Z,12.227173
2019-04-14T09:05:49.891Z,12.56958
2019-04-14T09:06:50.031Z,12.811279
2019-04-14T09:07:50.082Z,12.911987
2019-04-14T09:08:50.087Z,12.831421
2019-04-14T09:09:50.133Z,12.619934
2019-04-14T09:10:50.157Z,12.358093
2019-04-14T09:11:50.195Z,12.176819
2019-04-14T09:12:51.310Z,11.925049
2019-04-14T09:13:50.464Z,11.703491
2019-04-14T09:14:56.608Z,11.763916
2019-04-14T09:15:50.462Z,11.552429
2019-04-14T09:16:50.475Z,11.44165
2019-04-14T09:17:50.479Z,11.401367
2019-04-14T09:18:53.496Z,11.81427
2019-04-14T09:19:51.697Z,12.106323
2019-04-14T09:20:52.308Z,11.955261
2019-04-14T09:21:50.712Z,12.207031
2019-04-14T09:22:50.707Z,12.176819
2019-04-14T09:23:50.704Z,12.257385
2019-04-14T09:24:50.697Z,12.166748
2019-04-14T09:25:50.758Z,11.985474
2019-04-14T09:26:50.795Z,12.106323
2019-04-14T09:27:50.943Z,12.207031
2019-04-14T09:28:51.083Z,12.358093
2019-04-14T09:29:52.347Z,12.801208
2019-04-14T09:30:51.110Z,13.204041
2019-04-14T09:31:51.165Z,13.385315
2019-04-14T09:32:51.159Z,13.566589
2019-04-14T09:33:51.207Z,13.606873
2019-04-14T09:34:51.267Z,13.778076
2019-04-14T09:35:51.354Z,13.969421
2019-04-14T09:36:51.368Z,14.20105
2019-04-14T09:37:51.378Z,14.382324
2019-04-14T09:38:51.381Z,14.33197
2019-04-14T09:39:51.387Z,13.798218
2019-04-14T09:40:51.414Z,13.093262
2019-04-14T09:41:51.449Z,12.811279
2019-04-14T09:42:51.429Z,12.680359
2019-04-14T09:43:51.573Z,12.348022
2019-04-14T09:44:51.721Z,12.076111
2019-04-14T09:45:51.887Z,12.045898
2019-04-14T09:46:51.933Z,12.06604
2019-04-14T09:47:52.932Z,11.995544
2019-04-14T09:48:52.084Z,11.884766
2019-04-14T09:49:52.084Z,11.673279
2019-04-14T09:51:03.803Z,11.582642
2019-04-14T09:51:52.270Z,11.592712
2019-04-14T09:52:52.289Z,11.703491
2019-04-14T09:53:52.304Z,11.773987
2019-04-14T09:54:52.465Z,11.864624
2019-04-14T09:55:52.457Z,11.94519
2019-04-14T09:56:52.480Z,12.297668
2019-04-14T09:57:53.604Z,12.43866
2019-04-14T09:58:52.752Z,12.730713
2019-04-14T09:59:52.766Z,13.204041
2019-04-14T10:00:52.797Z,13.536377
2019-04-14T10:01:52.969Z,13.929138
2019-04-14T10:02:53.101Z,14.120483
2019-04-14T10:03:53.098Z,14.130554
2019-04-14T10:04:53.103Z,14.120483
2019-04-14T10:05:53.111Z,14.0802
2019-04-14T10:06:53.135Z,13.677368
2019-04-14T10:07:53.155Z,13.647156
2019-04-14T10:08:53.159Z,13.778076
2019-04-14T10:09:53.159Z,13.848572
2019-04-14T10:10:53.164Z,13.677368
2019-04-14T10:11:56.248Z,13.355103
2019-04-14T10:12:53.185Z,13.063049
2019-04-14T10:13:53.200Z,12.841492
2019-04-14T10:14:53.240Z,12.861633
2019-04-14T10:15:53.301Z,12.901917
2019-04-14T10:16:53.292Z,12.841492
2019-04-14T10:17:53.572Z,12.539368
2019-04-14T10:18:53.584Z,12.509155
2019-04-14T10:19:53.661Z,12.609863
2019-04-14T10:20:53.741Z,12.69043
2019-04-14T10:21:54.753Z,12.730713
2019-04-14T10:22:53.885Z,12.619934
2019-04-14T10:23:53.910Z,12.428589
2019-04-14T10:24:53.968Z,12.176819
2019-04-14T10:25:53.999Z,12.539368
2019-04-14T10:26:54.014Z,13.083191
2019-04-14T10:27:54.073Z,13.365173
2019-04-14T10:28:54.076Z,13.848572
2019-04-14T10:29:54.170Z,14.0802
2019-04-14T10:30:54.304Z,14.190979
2019-04-14T10:31:54.350Z,14.33197
2019-04-14T10:32:54.418Z,14.311829
2019-04-14T10:33:54.361Z,14.442749
2019-04-14T10:34:55.401Z,14.684448
2019-04-14T10:35:54.536Z,14.775085
2019-04-14T10:36:54.572Z,14.593811
2019-04-14T10:37:54.603Z,14.382324
2019-04-14T10:38:54.694Z,13.94928
2019-04-14T10:39:54.729Z,14.251404
2019-04-14T10:40:54.829Z,14.805298
2019-04-14T10:41:54.840Z,15.228271
2019-04-14T10:42:54.966Z,15.369263
2019-04-14T10:43:55.106Z,15.248413
2019-04-14T10:44:55.048Z,14.865723
2019-04-14T10:45:55.107Z,14.70459
2019-04-14T10:46:55.266Z,14.895935
2019-04-14T10:47:55.432Z,14.986572
2019-04-14T10:48:55.597Z,15.107422
2019-04-14T10:49:55.640Z,15.359192
2019-04-14T10:50:55.755Z,15.328979
2019-04-14T10:51:55.855Z,15.298767
2019-04-14T10:52:55.886Z,15.107422
2019-04-14T10:53:55.973Z,15.097351
2019-04-14T10:54:56.946Z,15.248413
2019-04-14T10:55:55.973Z,15.187988
2019-04-14T10:56:55.962Z,15.097351
2019-04-14T10:57:56.123Z,14.95636
2019-04-14T10:58:56.248Z,14.58374
2019-04-14T10:59:56.196Z,14.070129
2019-04-14T11:00:56.298Z,13.747864
2019-04-14T11:01:56.311Z,13.888855
2019-04-14T11:02:56.347Z,14.342041
2019-04-14T11:03:56.325Z,14.624023
2019-04-14T11:04:56.336Z,15.046997
2019-04-14T11:05:56.411Z,15.429688
2019-04-14T11:06:56.457Z,15.167847
2019-04-14T11:07:56.513Z,15.167847
2019-04-14T11:08:56.633Z,15.429688
2019-04-14T11:09:56.817Z,15.923157
2019-04-14T11:10:56.765Z,16.275635
2019-04-14T11:11:56.824Z,16.356201
2019-04-14T11:12:57.822Z,16.124573
2019-04-14T11:13:56.916Z,16.567688
2019-04-14T11:14:56.973Z,16.618042
2019-04-14T11:15:56.973Z,16.396484
2019-04-14T11:16:57.096Z,15.923157
2019-04-14T11:17:57.129Z,15.409546
2019-04-14T11:18:57.289Z,15.067139
2019-04-14T11:19:57.361Z,14.805298
2019-04-14T11:20:57.400Z,14.412537
2019-04-14T11:21:57.447Z,14.120483
2019-04-14T11:23:03.357Z,14.0802
2019-04-14T11:23:57.601Z,14.523315
2019-04-14T11:24:57.722Z,15.067139
2019-04-14T11:25:57.860Z,15.480042
2019-04-14T11:26:57.924Z,15.520325
2019-04-14T11:27:58.081Z,15.258484
2019-04-14T11:28:58.214Z,14.885864
2019-04-14T11:29:58.272Z,14.634094
2019-04-14T11:30:58.283Z,14.372253
2019-04-14T11:31:58.360Z,14.120483
2019-04-14T11:32:58.495Z,13.969421
2019-04-14T11:33:58.617Z,14.402466
2019-04-14T11:34:58.791Z,14.845581
2019-04-14T11:35:58.950Z,15.480042
2019-04-14T11:36:58.901Z,15.943298
2019-04-14T11:37:59.068Z,16.547546
2019-04-14T11:38:59.140Z,16.799316
2019-04-14T11:39:59.260Z,16.71875
2019-04-14T11:40:59.426Z,16.829529
2019-04-14T11:41:59.474Z,16.497192
2019-04-14T11:42:59.577Z,16.245422
2019-04-14T11:43:59.586Z,15.913086
2019-04-14T11:44:59.660Z,15.812378
2019-04-14T11:45:59.718Z,15.550537
2019-04-14T11:46:59.776Z,15.268555
2019-04-14T11:47:59.797Z,14.95636
2019-04-14T11:48:59.874Z,14.734802
2019-04-14T11:49:59.944Z,14.0802
2019-04-14T11:50:59.928Z,13.788147
2019-04-14T11:52:00.021Z,13.82843
2019-04-14T11:53:00.032Z,14.0802
2019-04-14T11:54:00.057Z,14.160767